Time;durP1;ratioP1;P1;durP2;ratioP2;P2;SDS_P1;SDS_P2;PMS_P1;PMS_P2;Temp;Humidity;BMP_temperature;BMP_pressure;BME280_temperature;BME280_humidity;BME280_pressure;Samples;Min_cycle;Max_cycle;Signal;HPM_P1;HPM_P2
2023/04/26 00:01:17;;;;;;;3.78;1.63;;;;;;;18.67;36.25;101852.41;4991218;28;20262;-69
2023/04/26 00:03:42;;;;;;;4.15;1.58;;;;;;;18.64;36.36;101853.47;5002222;28;20034;-69
2023/04/26 00:06:08;;;;;;;4.75;2.00;;;;;;;18.63;36.29;101848.31;4992297;28;20446;-70
2023/04/26 00:08:36;;;;;;;4.80;1.65;;;;;;;18.62;35.99;101850.06;4985978;28;20040;-71
2023/04/26 00:11:01;;;;;;;4.18;2.13;;;;;;;18.62;36.21;101854.53;4981901;28;20574;-70
2023/04/26 00:13:27;;;;;;;5.18;1.90;;;;;;;18.61;36.03;101850.19;4995921;28;20048;-69
2023/04/26 00:15:52;;;;;;;5.03;1.60;;;;;;;18.60;36.17;101857.25;4993557;28;20038;-71
2023/04/26 00:18:17;;;;;;;4.30;1.90;;;;;;;18.58;36.17;101859.16;4987164;28;20038;-72
2023/04/26 00:20:42;;;;;;;4.28;1.90;;;;;;;18.59;36.02;101855.56;4990996;28;20026;-68
2023/04/26 00:23:09;;;;;;;7.35;1.90;;;;;;;18.58;35.98;101855.66;5000676;28;20029;-68
2023/04/26 00:25:34;;;;;;;4.32;2.05;;;;;;;18.56;36.00;101858.41;5001888;28;20068;-68
2023/04/26 00:28:00;;;;;;;4.32;1.80;;;;;;;18.58;35.78;101858.31;4986490;28;20034;-68
2023/04/26 00:30:26;;;;;;;4.63;1.90;;;;;;;18.54;36.09;101854.19;4982449;28;20038;-70
2023/04/26 00:32:51;;;;;;;4.13;1.92;;;;;;;18.52;36.19;101850.78;4982306;28;20077;-68
2023/04/26 00:35:17;;;;;;;5.15;1.75;;;;;;;18.50;36.26;101845.66;4997464;28;20030;-72
2023/04/26 00:37:42;;;;;;;5.60;2.10;;;;;;;18.53;35.96;101852.50;4983726;28;20045;-68
2023/04/26 00:40:08;;;;;;;4.13;1.73;;;;;;;18.54;36.07;101851.56;4987979;28;20545;-72
2023/04/26 00:42:33;;;;;;;4.10;1.70;;;;;;;18.54;35.96;101854.19;4989279;28;20426;-69
2023/04/26 00:44:58;;;;;;;6.30;2.17;;;;;;;18.53;36.02;101855.13;4987480;28;20030;-69
2023/04/26 00:47:24;;;;;;;6.38;1.90;;;;;;;18.51;35.81;101857.03;4982175;28;20034;-69
2023/04/26 00:49:50;;;;;;;6.22;2.38;;;;;;;18.51;35.72;101851.75;4991772;28;20114;-70
2023/04/26 00:52:16;;;;;;;5.13;2.08;;;;;;;18.49;35.79;101857.16;4981902;28;20127;-70
2023/04/26 00:54:41;;;;;;;5.28;2.33;;;;;;;18.49;35.79;101852.69;4982197;28;20044;-69
2023/04/26 00:57:08;;;;;;;5.45;2.08;;;;;;;18.47;35.59;101848.50;4982048;28;20398;-69
2023/04/26 00:59:35;;;;;;;4.20;2.00;;;;;;;18.47;35.64;101848.50;4981705;28;20034;-72
2023/04/26 01:02:02;;;;;;;4.45;1.95;;;;;;;18.45;35.66;101853.88;4989980;28;20140;-70
2023/04/26 01:04:29;;;;;;;4.47;1.70;;;;;;;18.45;35.68;101853.00;4993403;28;20038;-69
2023/04/26 01:06:54;;;;;;;5.82;2.00;;;;;;;18.46;35.72;101852.06;4982017;28;20088;-72
2023/04/26 01:09:21;;;;;;;4.38;2.00;;;;;;;18.45;35.96;101853.88;4992081;28;20033;-68
2023/04/26 01:11:47;;;;;;;5.32;2.20;;;;;;;18.42;35.80;101851.44;4998714;28;20030;-69
2023/04/26 01:14:13;;;;;;;3.83;2.08;;;;;;;18.43;35.70;101850.47;4998504;28;20046;-69
2023/04/26 01:16:39;;;;;;;4.28;1.90;;;;;;;18.40;35.69;101852.47;4996776;28;20073;-72
2023/04/26 01:19:12;;;;;;;3.80;1.80;;;;;;;18.39;35.70;101848.13;4991640;28;20037;-69
2023/04/26 01:21:39;;;;;;;4.75;1.80;;;;;;;18.40;35.70;101847.19;5001067;28;20030;-70
2023/04/26 01:24:05;;;;;;;6.25;1.90;;;;;;;18.40;35.49;101842.75;5001135;28;20045;-69
2023/04/26 01:26:31;;;;;;;6.32;2.53;;;;;;;18.40;35.47;101858.59;4983289;28;20379;-72
2023/04/26 01:28:57;;;;;;;4.78;1.85;;;;;;;18.38;35.36;101863.13;5001051;28;20152;-68
2023/04/26 01:31:22;;;;;;;4.05;1.92;;;;;;;18.37;35.50;101858.78;4994690;28;20038;-69
2023/04/26 01:33:48;;;;;;;4.10;1.83;;;;;;;18.36;35.31;101858.88;4981804;28;20407;-69
2023/04/26 01:36:13;;;;;;;4.00;1.83;;;;;;;18.34;35.24;101856.38;4996348;28;20026;-71
2023/04/26 01:38:38;;;;;;;5.80;2.05;;;;;;;18.31;35.38;101857.41;4981539;28;20407;-69
2023/04/26 01:41:04;;;;;;;4.43;1.90;;;;;;;18.32;35.35;101860.88;4982309;28;20038;-70
2023/04/26 01:43:29;;;;;;;3.70;1.90;;;;;;;18.30;35.52;101853.06;4995289;28;20348;-69
2023/04/26 01:45:54;;;;;;;5.20;2.05;;;;;;;18.33;35.22;101856.47;4996758;28;20038;-71
2023/04/26 01:48:20;;;;;;;4.88;1.90;;;;;;;18.32;34.85;101852.97;4981616;28;20107;-72
2023/04/26 01:50:46;;;;;;;5.53;2.30;;;;;;;18.34;35.35;101860.78;4987900;28;20175;-71
2023/04/26 01:53:11;;;;;;;4.57;2.05;;;;;;;18.33;35.45;101852.03;4997562;28;20034;-70
2023/04/26 01:55:36;;;;;;;4.25;1.80;;;;;;;18.30;35.13;101850.44;4993193;28;20481;-70
2023/04/26 01:58:02;;;;;;;4.95;2.20;;;;;;;18.33;35.15;101859.13;4981761;28;20042;-71
2023/04/26 02:00:28;;;;;;;5.97;2.08;;;;;;;18.31;34.95;101851.31;4989479;28;20129;-70
2023/04/26 02:02:54;;;;;;;5.38;2.15;;;;;;;18.29;35.12;101858.47;4998165;28;20042;-69
2023/04/26 02:05:20;;;;;;;5.03;2.03;;;;;;;18.29;35.14;101856.69;4991382;28;20510;-70
2023/04/26 02:07:45;;;;;;;4.93;1.92;;;;;;;18.28;35.20;101857.63;5002789;28;20033;-70
2023/04/26 02:10:10;;;;;;;3.85;1.75;;;;;;;18.26;35.17;101859.53;4998180;28;21227;-70
2023/04/26 02:12:36;;;;;;;4.20;2.00;;;;;;;18.25;34.98;101854.34;4998544;28;20034;-69
2023/04/26 02:15:01;;;;;;;5.65;2.00;;;;;;;18.25;35.12;101856.97;4986781;28;21288;-69
2023/04/26 02:17:28;;;;;;;5.07;2.05;;;;;;;18.23;35.07;101848.31;4985194;28;20442;-72
2023/04/26 02:19:53;;;;;;;5.10;2.10;;;;;;;18.22;34.79;101854.53;4990785;28;20397;-68
2023/04/26 02:22:20;;;;;;;4.28;2.05;;;;;;;18.23;34.85;101857.09;5004236;28;20026;-68
2023/04/26 02:24:46;;;;;;;4.47;1.92;;;;;;;18.22;34.96;101862.47;5004541;28;20124;-68
2023/04/26 02:27:11;;;;;;;3.67;1.80;;;;;;;18.19;35.05;101849.47;4995331;28;20108;-71
2023/04/26 02:29:37;;;;;;;4.65;2.08;;;;;;;18.21;34.76;101856.31;5002822;28;20057;-68
2023/04/26 02:32:03;;;;;;;5.78;2.15;;;;;;;18.20;34.83;101851.13;4995536;28;20056;-68
2023/04/26 02:34:28;;;;;;;4.22;2.00;;;;;;;18.19;34.81;101849.47;5000281;28;20030;-68
2023/04/26 02:36:53;;;;;;;4.75;2.08;;;;;;;18.20;34.90;101853.78;4984758;28;20133;-71
2023/04/26 02:39:19;;;;;;;5.75;2.22;;;;;;;18.18;34.80;101851.25;4984291;28;20038;-71
2023/04/26 02:41:45;;;;;;;5.30;1.90;;;;;;;18.18;34.70;101853.03;4984487;28;20114;-69
2023/04/26 02:44:10;;;;;;;4.95;2.00;;;;;;;18.18;34.37;101847.75;4998715;28;20070;-70
2023/04/26 02:46:36;;;;;;;3.87;1.87;;;;;;;18.18;34.52;101848.59;4999469;28;20053;-69
2023/04/26 02:49:01;;;;;;;6.00;2.10;;;;;;;18.15;34.71;101850.59;4991759;28;20323;-68
2023/04/26 02:51:27;;;;;;;5.90;2.10;;;;;;;18.14;34.56;101849.75;4967029;28;20668;-68
2023/04/26 02:53:52;;;;;;;4.80;2.00;;;;;;;18.13;34.45;101848.06;4991257;28;20046;-70
2023/04/26 02:56:18;;;;;;;3.83;2.08;;;;;;;18.13;34.49;101848.06;4983178;28;20038;-70
2023/04/26 02:58:43;;;;;;;5.72;1.90;;;;;;;18.11;34.79;101836.78;4988345;28;20034;-69
2023/04/26 03:01:09;;;;;;;3.92;1.90;;;;;;;18.10;34.60;101838.56;4984409;28;20045;-71
2023/04/26 03:03:35;;;;;;;4.65;1.90;;;;;;;18.10;34.65;101842.97;4995536;28;20038;-68
2023/04/26 03:06:01;;;;;;;4.22;1.88;;;;;;;18.08;34.23;101831.69;4998947;28;20038;-69
2023/04/26 03:08:26;;;;;;;3.35;1.70;;;;;;;18.08;34.72;101829.88;4983879;28;20380;-70
2023/04/26 03:10:51;;;;;;;4.60;2.03;;;;;;;18.10;34.57;101832.44;4991359;28;20065;-69
2023/04/26 03:13:17;;;;;;;4.43;2.37;;;;;;;18.12;34.45;101830.56;4970433;28;20038;-68
2023/04/26 03:15:45;;;;;;;4.45;2.20;;;;;;;18.09;34.41;101830.75;4998234;28;20411;-68
2023/04/26 03:18:10;;;;;;;5.43;2.17;;;;;;;18.10;34.58;101835.94;4994307;28;20038;-69
2023/04/26 03:20:36;;;;;;;4.97;2.22;;;;;;;18.09;34.44;101830.75;5002800;28;20041;-69
2023/04/26 03:23:01;;;;;;;4.95;2.20;;;;;;;18.06;34.63;101829.16;5002939;28;20504;-70
2023/04/26 03:25:26;;;;;;;4.80;2.20;;;;;;;18.06;34.47;101837.06;5001359;28;20061;-69
2023/04/26 03:27:51;;;;;;;6.20;2.40;;;;;;;18.06;34.47;101828.31;4983847;28;20303;-69
2023/04/26 03:30:17;;;;;;;4.43;2.00;;;;;;;18.05;34.69;101831.91;4989437;28;21176;-69
2023/04/26 03:32:42;;;;;;;4.47;1.90;;;;;;;18.04;34.39;101819.63;4997740;28;20438;-70
2023/04/26 03:35:09;;;;;;;5.32;2.00;;;;;;;18.04;34.35;101824.91;4994415;28;20049;-70
2023/04/26 03:37:34;;;;;;;5.20;2.05;;;;;;;18.00;34.64;101826.91;4997980;28;20072;-69
2023/04/26 03:39:59;;;;;;;4.30;1.92;;;;;;;17.99;34.46;101816.47;4996950;28;20054;-69
2023/04/26 03:42:25;;;;;;;3.85;2.00;;;;;;;18.00;34.40;101826.91;4992541;28;20030;-70
2023/04/26 03:44:50;;;;;;;5.68;2.58;;;;;;;17.98;34.26;101822.72;4986590;28;20034;-70
2023/04/26 03:47:15;;;;;;;4.55;1.95;;;;;;;18.00;34.50;101818.16;4994628;28;20040;-68
2023/04/26 03:49:41;;;;;;;5.13;2.13;;;;;;;18.01;34.10;101822.47;5000059;28;20429;-69
2023/04/26 03:52:06;;;;;;;4.35;2.17;;;;;;;18.00;34.25;101829.56;4991072;28;20503;-70
2023/04/26 03:54:33;;;;;;;4.40;1.92;;;;;;;17.99;34.29;101827.88;4991131;28;20034;-68
2023/04/26 03:56:58;;;;;;;5.05;2.25;;;;;;;17.97;33.85;101821.84;4988940;28;20061;-69
2023/04/26 03:59:23;;;;;;;5.53;2.30;;;;;;;17.91;33.98;101823.09;4995099;28;20462;-70
2023/04/26 04:01:48;;;;;;;5.53;2.40;;;;;;;17.96;34.09;101833.34;4990462;28;20259;-71
2023/04/26 04:04:14;;;;;;;5.47;2.13;;;;;;;17.97;34.26;101831.56;4991078;28;20280;-69
2023/04/26 04:06:40;;;;;;;5.57;2.10;;;;;;;17.98;34.02;101830.63;4992165;28;21119;-72
2023/04/26 04:09:06;;;;;;;5.70;2.28;;;;;;;17.97;34.24;101832.38;4991660;28;20036;-70
2023/04/26 04:11:31;;;;;;;5.53;2.43;;;;;;;17.94;34.36;101825.53;4987466;28;20104;-72
2023/04/26 04:13:57;;;;;;;4.70;2.10;;;;;;;17.91;34.12;101823.09;4995957;28;20264;-69
2023/04/26 04:16:22;;;;;;;4.25;2.17;;;;;;;17.93;34.07;101825.63;4985772;28;20038;-72
2023/04/26 04:18:47;;;;;;;6.03;2.25;;;;;;;17.92;34.16;101826.56;4994893;28;20042;-71
2023/04/26 04:21:13;;;;;;;4.43;2.28;;;;;;;17.90;34.19;101825.84;4989395;28;21205;-69
2023/04/26 04:23:38;;;;;;;5.32;2.25;;;;;;;17.90;34.00;101826.69;4999433;28;20034;-72
2023/04/26 04:26:04;;;;;;;5.15;2.40;;;;;;;17.90;34.27;101826.69;4998082;28;20644;-70
2023/04/26 04:28:30;;;;;;;5.57;2.10;;;;;;;17.92;34.07;101831.84;4984671;28;20076;-69
2023/04/26 04:30:56;;;;;;;4.53;2.25;;;;;;;17.89;33.92;101832.03;5000658;28;20521;-69
2023/04/26 04:33:21;;;;;;;4.57;2.35;;;;;;;17.91;34.01;101836.28;4987418;28;20030;-70
2023/04/26 04:35:46;;;;;;;4.50;2.30;;;;;;;17.89;34.15;101835.53;5002205;28;20584;-67
2023/04/26 04:38:12;;;;;;;4.68;2.22;;;;;;;17.87;34.02;101828.63;4999398;28;20064;-69
2023/04/26 04:40:37;;;;;;;5.55;2.65;;;;;;;17.85;34.20;101834.00;4986870;28;20049;-72
2023/04/26 04:43:02;;;;;;;4.93;2.33;;;;;;;17.84;33.99;101840.22;4986341;28;20044;-68
2023/04/26 04:45:27;;;;;;;4.90;2.30;;;;;;;17.80;34.50;101838.75;4993047;28;20038;-69
2023/04/26 04:47:53;;;;;;;4.50;2.15;;;;;;;17.84;34.61;101844.66;4989327;28;20290;-68
2023/04/26 04:50:19;;;;;;;5.30;2.35;;;;;;;17.83;35.47;101843.81;4994966;28;20029;-69
2023/04/26 04:52:45;;;;;;;3.90;1.77;;;;;;;17.86;35.26;101840.13;4999859;28;20029;-69
2023/04/26 04:55:10;;;;;;;4.53;1.70;;;;;;;17.89;35.36;101853.13;4994704;28;20034;-70
2023/04/26 04:57:35;;;;;;;4.13;1.95;;;;;;;17.90;35.45;101855.69;4994169;28;20100;-70
2023/04/26 05:00:08;;;;;;;4.53;1.85;;;;;;;17.94;35.30;101845.78;4986718;28;20149;-68
2023/04/26 05:02:34;;;;;;;4.50;2.03;;;;;;;18.00;35.21;101853.28;5000441;28;20049;-68
2023/04/26 05:05:00;;;;;;;4.55;1.80;;;;;;;18.03;35.00;101855.72;4988720;28;20494;-68
2023/04/26 05:07:26;;;;;;;3.83;1.95;;;;;;;18.07;35.14;101853.72;4993609;28;20054;-69
2023/04/26 05:09:51;;;;;;;4.43;2.00;;;;;;;18.11;35.01;101860.50;4987713;28;20073;-69
2023/04/26 05:12:16;;;;;;;4.45;1.92;;;;;;;18.13;35.16;101858.63;4987996;28;20053;-68
2023/04/26 05:14:41;;;;;;;3.97;2.00;;;;;;;18.16;34.96;101850.50;4983608;28;20038;-69
2023/04/26 05:17:07;;;;;;;4.57;1.97;;;;;;;18.20;34.80;101853.78;4991961;28;20259;-69
2023/04/26 05:19:32;;;;;;;6.53;1.98;;;;;;;18.22;34.95;101854.53;5000663;28;20915;-69
2023/04/26 05:21:58;;;;;;;4.03;1.90;;;;;;;18.26;34.86;101856.00;4992590;28;20046;-70
2023/04/26 05:24:23;;;;;;;5.00;2.10;;;;;;;18.29;34.61;101861.97;4990215;28;20034;-68
2023/04/26 05:26:48;;;;;;;5.25;2.00;;;;;;;18.34;34.71;101858.16;4993891;28;20039;-70
2023/04/26 05:29:13;;;;;;;3.70;1.90;;;;;;;18.34;34.81;101861.66;4970109;28;20037;-69
2023/04/26 05:31:39;;;;;;;5.27;2.27;;;;;;;18.38;34.64;101857.00;4996295;28;20030;-68
2023/04/26 05:34:04;;;;;;;4.30;2.00;;;;;;;18.41;34.78;101856.81;4997934;28;20401;-68
2023/04/26 05:36:29;;;;;;;3.70;2.00;;;;;;;18.43;34.42;101865.47;4990054;28;20033;-68
2023/04/26 05:38:54;;;;;;;4.30;1.97;;;;;;;18.45;34.71;101863.56;4991410;28;20046;-72
2023/04/26 05:41:20;;;;;;;4.27;2.10;;;;;;;18.45;34.51;101867.06;4974490;28;20287;-68
2023/04/26 05:43:46;;;;;;;4.38;1.90;;;;;;;18.45;34.71;101863.56;4986715;28;20274;-68
2023/04/26 05:46:11;;;;;;;4.72;2.28;;;;;;;18.48;34.69;101866.00;4990806;28;20088;-67
2023/04/26 05:48:37;;;;;;;4.75;2.30;;;;;;;18.49;34.68;101868.53;4994425;28;20698;-67
2023/04/26 05:51:03;;;;;;;4.35;2.50;;;;;;;18.48;34.56;101864.22;4996380;28;20033;-69
2023/04/26 05:53:28;;;;;;;5.72;2.40;;;;;;;18.52;34.46;101862.22;4999479;28;20034;-68
2023/04/26 05:55:53;;;;;;;4.10;2.10;;;;;;;18.51;34.52;101863.16;5001490;28;20467;-71
2023/04/26 05:58:19;;;;;;;4.25;2.03;;;;;;;18.56;34.62;101857.56;4998806;28;20307;-69
2023/04/26 06:00:44;;;;;;;3.67;2.00;;;;;;;18.55;34.60;101856.75;4997889;28;20038;-68
2023/04/26 06:03:09;;;;;;;3.67;2.00;;;;;;;18.56;34.46;101861.03;5002236;28;20041;-69
2023/04/26 06:05:37;;;;;;;4.50;2.10;;;;;;;18.59;34.36;101862.66;4993823;28;20034;-68
2023/04/26 06:08:02;;;;;;;5.63;2.08;;;;;;;18.62;34.47;101863.28;4992689;28;20041;-71
2023/04/26 06:10:28;;;;;;;4.65;2.40;;;;;;;18.62;34.66;101867.72;5002715;28;20049;-70
2023/04/26 06:12:53;;;;;;;5.90;2.22;;;;;;;18.60;34.71;101862.53;4995061;28;20064;-69
2023/04/26 06:15:18;;;;;;;4.17;2.07;;;;;;;18.62;34.85;101867.72;4989532;28;20045;-70
2023/04/26 06:17:44;;;;;;;4.10;2.17;;;;;;;18.61;35.12;101868.66;4986242;28;20260;-71
2023/04/26 06:20:09;;;;;;;6.47;2.25;;;;;;;18.65;35.07;101876.28;4973523;28;20504;-71
2023/04/26 06:22:36;;;;;;;6.53;2.33;;;;;;;18.66;35.30;101875.34;4995765;28;20097;-69
2023/04/26 06:25:03;;;;;;;5.03;2.58;;;;;;;18.65;35.59;101872.81;4987362;28;20069;-72
2023/04/26 06:27:28;;;;;;;3.72;1.90;;;;;;;18.68;35.75;101880.50;4987411;28;20034;-68
2023/04/26 06:29:54;;;;;;;7.03;2.63;;;;;;;18.68;35.63;101881.34;4984976;28;20360;-71
2023/04/26 06:32:19;;;;;;;4.70;2.28;;;;;;;18.68;35.80;101881.34;4999189;28;20030;-70
2023/04/26 06:34:44;;;;;;;4.78;2.67;;;;;;;18.72;35.93;101886.44;4987727;28;20034;-70
2023/04/26 06:37:10;;;;;;;5.07;2.40;;;;;;;18.71;35.81;101887.38;4987960;28;20505;-70
2023/04/26 06:39:37;;;;;;;5.80;2.28;;;;;;;18.70;36.07;101890.97;4992010;28;20037;-70
2023/04/26 06:42:02;;;;;;;4.97;2.50;;;;;;;18.71;35.96;101895.28;4985688;28;20041;-72
2023/04/26 06:44:28;;;;;;;5.53;2.08;;;;;;;18.72;35.84;101892.53;4996107;28;20360;-72
2023/04/26 06:46:54;;;;;;;5.88;2.20;;;;;;;18.71;35.83;101895.28;4988499;28;20080;-69
2023/04/26 06:49:19;;;;;;;4.45;2.35;;;;;;;18.76;36.03;101898.50;4983636;28;20037;-70
2023/04/26 06:51:44;;;;;;;6.22;2.22;;;;;;;18.76;36.16;101901.97;4989504;28;20072;-72
2023/04/26 06:54:11;;;;;;;4.97;2.30;;;;;;;18.75;36.16;101897.63;4987895;28;20081;-69
2023/04/26 06:56:36;;;;;;;6.43;2.22;;;;;;;18.77;36.48;101897.53;4992756;28;20323;-73
2023/04/26 06:59:04;;;;;;;6.67;2.43;;;;;;;18.76;36.45;101890.56;4990064;28;20038;-73
2023/04/26 07:01:32;;;;;;;5.45;2.35;;;;;;;18.79;36.26;101896.47;4990299;28;20275;-70
2023/04/26 07:03:58;;;;;;;5.43;2.22;;;;;;;18.78;36.17;101893.94;4991712;28;20045;-69
2023/04/26 07:06:25;;;;;;;6.30;2.60;;;;;;;18.79;36.35;101904.41;4995093;28;20038;-69
2023/04/26 07:08:50;;;;;;;5.82;2.40;;;;;;;18.79;36.43;101898.28;4999055;28;20037;-69
2023/04/26 07:11:15;;;;;;;7.22;2.33;;;;;;;18.78;36.63;101893.94;4994882;28;20367;-70
2023/04/26 07:13:41;;;;;;;5.55;2.08;;;;;;;18.77;36.59;101900.16;5000008;28;20376;-69
2023/04/26 07:16:06;;;;;;;7.07;2.50;;;;;;;18.79;36.83;101903.56;4990797;28;20068;-72
2023/04/26 07:18:31;;;;;;;8.02;2.33;;;;;;;18.81;36.88;101901.66;4991499;28;20045;-69
2023/04/26 07:20:56;;;;;;;6.68;2.25;;;;;;;18.79;37.44;101895.66;4992664;28;20036;-71
2023/04/26 07:23:22;;;;;;;5.87;1.93;;;;;;;18.82;37.13;101903.38;4998284;28;20561;-70
2023/04/26 07:25:47;;;;;;;5.22;2.17;;;;;;;18.82;36.82;101900.72;4989874;28;20506;-70
2023/04/26 07:28:12;;;;;;;5.07;2.10;;;;;;;18.84;36.79;101904.13;5003122;28;20042;-69
2023/04/26 07:30:38;;;;;;;6.43;2.10;;;;;;;18.83;36.50;101897.09;4993750;28;20104;-71
2023/04/26 07:33:03;;;;;;;4.40;2.05;;;;;;;18.88;36.82;101904.75;4976038;28;20321;-70
2023/04/26 07:35:29;;;;;;;7.20;2.00;;;;;;;18.87;36.54;101897.78;4994114;28;20034;-71
2023/04/26 07:37:54;;;;;;;6.80;2.30;;;;;;;18.88;36.48;101900.31;4980004;28;20045;-73
2023/04/26 07:40:21;;;;;;;4.43;1.77;;;;;;;18.86;36.60;101896.94;4996883;28;20382;-70
2023/04/26 07:42:46;;;;;;;3.72;1.80;;;;;;;18.87;36.63;101893.34;5003207;28;20034;-71
2023/04/26 07:45:12;;;;;;;6.05;1.90;;;;;;;18.89;36.55;101898.53;4994659;28;20030;-69
2023/04/26 07:47:37;;;;;;;6.73;1.90;;;;;;;18.89;36.39;101893.25;4998667;28;20057;-69
2023/04/26 07:50:03;;;;;;;5.25;1.90;;;;;;;18.91;36.57;101892.19;4993084;28;20773;-72
2023/04/26 07:52:28;;;;;;;6.22;1.90;;;;;;;18.96;36.42;101887.44;4990469;28;20361;-77
2023/04/26 07:54:53;;;;;;;4.35;1.73;;;;;;;18.98;36.03;101882.91;4993732;28;20042;-72
2023/04/26 07:57:19;;;;;;;5.85;2.30;;;;;;;19.02;36.32;101886.16;4996617;28;20026;-74
2023/04/26 07:59:44;;;;;;;4.88;2.03;;;;;;;19.01;36.04;101893.25;4998924;28;20038;-74
2023/04/26 08:02:09;;;;;;;5.72;1.77;;;;;;;19.01;36.08;101893.25;4991659;28;20070;-77
2023/04/26 08:04:35;;;;;;;4.55;1.90;;;;;;;19.00;36.09;101898.66;4969624;28;20068;-74
2023/04/26 08:07:01;;;;;;;4.90;1.80;;;;;;;18.99;36.16;101904.88;4988898;28;20080;-73
2023/04/26 08:09:27;;;;;;;4.18;1.90;;;;;;;18.96;36.18;101902.44;4996593;28;20793;-72
2023/04/26 08:11:53;;;;;;;5.00;1.80;;;;;;;18.95;35.92;101906.88;4985853;28;20037;-72
2023/04/26 08:14:18;;;;;;;4.32;1.80;;;;;;;18.99;36.07;101921.59;4992370;28;20037;-72
2023/04/26 08:16:43;;;;;;;3.45;1.40;;;;;;;18.99;35.93;101910.16;4998276;28;20383;-71
2023/04/26 08:19:09;;;;;;;4.28;1.65;;;;;;;19.01;36.16;101918.84;4985704;28;20503;-73
2023/04/26 08:21:34;;;;;;;4.82;1.48;;;;;;;18.99;36.13;101904.88;4988327;28;20069;-73
2023/04/26 08:24:06;;;;;;;5.97;2.00;;;;;;;19.04;35.93;101902.75;5054634;28;20442;-72
2023/04/26 08:26:31;;;;;;;5.30;1.85;;;;;;;19.09;35.41;101905.94;5040133;28;20124;-71
2023/04/26 08:28:56;;;;;;;3.75;1.58;;;;;;;19.03;35.45;101899.28;5038323;28;20392;-73
2023/04/26 08:31:21;;;;;;;4.00;1.50;;;;;;;19.02;35.48;101900.22;5037603;28;20568;-72
2023/04/26 08:33:47;;;;;;;4.50;1.40;;;;;;;19.11;35.58;101911.13;5038407;28;20037;-71
2023/04/26 08:36:12;;;;;;;4.05;1.50;;;;;;;19.13;35.19;101898.66;5038152;28;20270;-72
2023/04/26 08:38:37;;;;;;;4.60;1.75;;;;;;;19.09;35.54;101908.59;5037876;28;20411;-69
2023/04/26 08:41:04;;;;;;;6.72;1.88;;;;;;;19.07;35.76;101904.34;5037378;28;20041;-71
2023/04/26 08:43:29;;;;;;;7.63;1.80;;;;;;;19.03;35.68;101901.09;5037693;28;20048;-70
2023/04/26 08:45:54;;;;;;;5.50;1.65;;;;;;;19.02;36.02;101899.38;5038220;28;20025;-70
2023/04/26 08:48:20;;;;;;;4.05;1.50;;;;;;;18.99;35.89;101905.75;5036611;28;20040;-70
2023/04/26 08:50:47;;;;;;;5.18;1.70;;;;;;;18.97;35.84;101897.03;5035900;28;20611;-69
2023/04/26 08:53:18;;;;;;;3.80;1.50;;;;;;;18.95;35.97;101901.59;5037450;28;20033;-70
2023/04/26 08:55:48;;;;;;;4.00;1.50;;;;;;;18.94;35.63;101899.91;5037457;28;20025;-73
2023/04/26 08:58:13;;;;;;;2.92;1.20;;;;;;;18.95;35.82;101896.31;5037951;28;20045;-72
2023/04/26 09:00:41;;;;;;;4.85;1.55;;;;;;;18.93;35.82;101897.34;5037145;28;20052;-71
2023/04/26 09:03:06;;;;;;;8.68;1.88;;;;;;;18.95;35.68;101898.13;5044820;28;20060;-70
2023/04/26 09:05:33;;;;;;;3.27;1.23;;;;;;;18.93;35.62;101894.72;5038255;28;20071;-71
2023/04/26 09:08:04;;;;;;;4.75;1.40;;;;;;;18.94;35.90;101899.06;5037200;28;20275;-73
2023/04/26 09:10:31;;;;;;;5.97;1.50;;;;;;;18.99;35.60;101894.31;5037251;28;20075;-75
2023/04/26 09:12:56;;;;;;;4.07;1.33;;;;;;;18.99;35.27;101899.59;5037874;28;20033;-74
2023/04/26 09:15:24;;;;;;;4.30;1.50;;;;;;;18.96;35.55;101883.94;5037133;28;20104;-68
2023/04/26 09:17:50;;;;;;;3.08;1.30;;;;;;;18.93;35.56;101889.44;5036875;28;20065;-69
2023/04/26 09:20:27;;;;;;;3.50;1.40;;;;;;;18.89;35.93;101886.16;5037041;28;20426;-68
2023/04/26 09:23:03;;;;;;;4.75;1.67;;;;;;;18.89;35.86;101887.97;5037032;28;20512;-71
2023/04/26 09:25:29;;;;;;;4.00;1.30;;;;;;;18.89;35.75;101886.16;5036765;28;20084;-71
2023/04/26 09:27:54;;;;;;;5.55;1.52;;;;;;;18.90;35.53;101893.16;5037048;28;20041;-70
2023/04/26 09:30:21;;;;;;;5.97;1.38;;;;;;;18.89;35.77;101883.53;5038016;28;20071;-75
2023/04/26 09:33:04;;;;;;;3.88;1.30;;;;;;;18.92;35.50;101869.28;5037765;28;20120;-73
2023/04/26 09:35:34;;;;;;;5.47;1.40;;;;;;;18.98;35.43;101876.78;5025143;28;20758;-75
2023/04/26 09:38:05;;;;;;;5.57;1.75;;;;;;;19.12;35.14;101881.09;5025078;28;20604;-74
2023/04/26 09:40:33;;;;;;;3.15;1.40;;;;;;;19.23;34.83;101896.22;5026264;28;20033;-73
2023/04/26 09:43:03;;;;;;;3.83;1.95;;;;;;;19.20;34.72;101892.84;5025369;28;20113;-74
2023/04/26 09:45:30;;;;;;;4.18;1.45;;;;;;;19.20;34.67;101890.19;5021247;28;20491;-71
2023/04/26 09:48:33;;;;;;;4.18;1.35;;;;;;;19.05;34.85;101893.88;5024463;28;20124;-71
2023/04/26 09:51:08;;;;;;;4.43;1.30;;;;;;;18.92;35.15;101877.19;5024181;28;20030;-72
2023/04/26 09:53:35;;;;;;;5.07;1.48;;;;;;;18.91;35.37;101875.50;5023516;28;20033;-73
2023/04/26 09:56:18;;;;;;;5.32;1.23;;;;;;;18.83;35.46;101882.13;5023833;28;20472;-73
2023/04/26 09:58:46;;;;;;;3.65;1.13;;;;;;;18.82;35.38;101880.44;5023479;28;20069;-71
2023/04/26 10:01:13;;;;;;;5.93;1.33;;;;;;;18.84;35.45;101877.72;5023475;28;20076;-70
2023/04/26 10:03:40;;;;;;;3.58;1.30;;;;;;;18.81;35.49;101869.97;5023679;28;20029;-72
2023/04/26 10:06:06;;;;;;;4.63;1.35;;;;;;;18.80;35.24;101876.19;5056506;28;20042;-72
2023/04/26 10:08:32;;;;;;;4.13;1.30;;;;;;;18.84;35.60;101880.34;5023846;28;20033;-73
2023/04/26 10:10:57;;;;;;;4.90;1.38;;;;;;;18.81;35.40;101876.09;5024395;28;20036;-77
2023/04/26 10:13:23;;;;;;;3.95;1.25;;;;;;;18.84;35.34;101888.28;5024049;28;20484;-75
2023/04/26 10:15:51;;;;;;;5.38;1.40;;;;;;;18.84;35.36;101885.63;5023292;28;20035;-74
2023/04/26 10:18:16;;;;;;;6.28;1.45;;;;;;;18.84;35.73;101878.56;5024041;28;20029;-74
2023/04/26 10:20:47;;;;;;;6.28;1.40;;;;;;;18.79;35.57;101872.72;5022046;28;20090;-74
2023/04/26 10:23:19;;;;;;;3.63;1.20;;;;;;;18.80;35.57;101881.47;5023327;28;20132;-72
2023/04/26 10:25:45;;;;;;;3.08;1.10;;;;;;;19.00;35.44;101877.50;5020362;28;20954;-73
2023/04/26 10:28:10;;;;;;;6.18;1.42;;;;;;;19.07;35.38;101875.28;5021156;28;20039;-74
2023/04/26 10:30:58;;;;;;;5.57;1.50;;;;;;;19.13;34.79;101874.88;5022886;28;20033;-72
2023/04/26 10:33:25;;;;;;;4.47;1.40;;;;;;;19.19;34.76;101877.09;5023034;28;20048;-71
2023/04/26 10:36:00;;;;;;;5.43;1.33;;;;;;;19.17;34.75;101879.84;5023329;28;20695;-76
2023/04/26 10:38:26;;;;;;;5.30;1.73;;;;;;;19.18;34.70;101878.91;5022795;28;20037;-71
2023/04/26 10:40:51;;;;;;;6.03;1.58;;;;;;;19.16;34.86;101872.84;5022373;28;20033;-72
2023/04/26 10:43:18;;;;;;;5.28;1.30;;;;;;;19.19;35.08;101877.09;5022775;28;20033;-71
2023/04/26 10:45:48;;;;;;;4.72;1.40;;;;;;;19.16;35.17;101866.72;5020783;28;20025;-71
2023/04/26 10:48:26;;;;;;;7.75;1.40;;;;;;;19.12;35.09;101866.09;5021664;28;20371;-70
2023/04/26 10:50:58;;;;;;;3.13;1.40;;;;;;;19.12;35.16;101868.75;5022505;28;20064;-68
2023/04/26 10:53:23;;;;;;;2.55;1.27;;;;;;;19.10;35.23;101861.88;5022498;28;20037;-69
2023/04/26 10:55:48;;;;;;;6.13;1.50;;;;;;;19.10;35.74;101869.78;5022609;28;20076;-70
2023/04/26 10:58:27;;;;;;;7.05;1.80;;;;;;;19.03;35.78;101864.94;5023040;28;20049;-72
2023/04/26 11:01:16;;;;;;;5.53;1.80;;;;;;;19.02;35.59;101862.38;5022874;28;20037;-68
2023/04/26 11:03:42;;;;;;;7.53;1.77;;;;;;;19.02;35.92;101862.38;5022121;28;20084;-71
2023/04/26 11:06:12;;;;;;;5.25;1.70;;;;;;;19.01;35.85;101868.66;5023063;28;20037;-74
2023/04/26 11:08:38;;;;;;;9.20;1.98;;;;;;;19.02;35.67;101865.88;5022983;28;20478;-72
2023/04/26 11:11:03;;;;;;;6.93;1.95;;;;;;;19.03;35.70;101861.44;5023698;28;20040;-71
2023/04/26 11:13:34;;;;;;;5.13;1.90;;;;;;;18.99;35.90;101852.91;5023463;28;20378;-72
2023/04/26 11:16:02;;;;;;;9.65;2.20;;;;;;;19.00;35.88;101854.56;5022680;28;20720;-71
2023/04/26 11:18:28;;;;;;;5.47;1.92;;;;;;;19.02;36.12;101854.47;5021423;28;21333;-74
2023/04/26 11:20:53;;;;;;;4.57;1.70;;;;;;;19.01;36.21;101848.34;5022639;28;20152;-76